<?xml version="1.0" encoding="UTF-8" standalone="no" ?>
<gpx xmlns="http://www.topografix.com/GPX/1/1" xmlns:xsi="http://www.w3.org/2001/XMLSchema-instance" xsi:schemaLocation="http://www.topografix.com/GPX/1/1 http://www.topografix.com/GPX/1/1/gpx.xsd" version="1.1" creator="VisuGPX - https://www.visugpx.com">
  <metadata>
    <name>Gréoux Vinon boucle HW 2019</name>
    <desc><![CDATA[Bocle au départ de Gréoux en direction de Vinon.
Trace réalisée le lundi 6 mai 2019.]]></desc>
  </metadata>
  <trk>
    <name><![CDATA[CURRENT TRACK- 06 MAI 2019 Greoux Vinon boucle]]></name>
    <trkseg>
      <trkpt lat="43.75108" lon="5.8975">
        <ele>302</ele>
        <time>2019-05-06T11:16:57Z</time>
      </trkpt>
      <trkpt lat="43.75114" lon="5.8972">
        <ele>302</ele>
        <time>2019-05-06T11:59:34Z</time>
      </trkpt>
      <trkpt lat="43.75121" lon="5.8966">
        <ele>302</ele>
        <time>2019-05-06T12:00:00Z</time>
      </trkpt>
      <trkpt lat="43.75158" lon="5.89639">
        <ele>303</ele>
        <time>2019-05-06T12:00:15Z</time>
      </trkpt>
      <trkpt lat="43.7515" lon="5.89571">
        <ele>303</ele>
        <time>2019-05-06T12:00:30Z</time>
      </trkpt>
      <trkpt lat="43.75145" lon="5.89505">
        <ele>302</ele>
        <time>2019-05-06T12:00:43Z</time>
      </trkpt>
      <trkpt lat="43.75186" lon="5.8948">
        <ele>302</ele>
        <time>2019-05-06T12:00:56Z</time>
      </trkpt>
      <trkpt lat="43.75189" lon="5.89423">
        <ele>303</ele>
        <time>2019-05-06T12:01:09Z</time>
      </trkpt>
      <trkpt lat="43.75206" lon="5.89367">
        <ele>303</ele>
        <time>2019-05-06T12:01:29Z</time>
      </trkpt>
      <trkpt lat="43.75244" lon="5.89324">
        <ele>305</ele>
        <time>2019-05-06T12:01:46Z</time>
      </trkpt>
      <trkpt lat="43.75278" lon="5.89276">
        <ele>305</ele>
        <time>2019-05-06T12:01:59Z</time>
      </trkpt>
      <trkpt lat="43.75304" lon="5.89219">
        <ele>305</ele>
        <time>2019-05-06T12:02:11Z</time>
      </trkpt>
      <trkpt lat="43.75315" lon="5.89155">
        <ele>306</ele>
        <time>2019-05-06T12:02:23Z</time>
      </trkpt>
      <trkpt lat="43.75324" lon="5.89087">
        <ele>307</ele>
        <time>2019-05-06T12:02:39Z</time>
      </trkpt>
      <trkpt lat="43.75335" lon="5.89022">
        <ele>309</ele>
        <time>2019-05-06T12:02:58Z</time>
      </trkpt>
      <trkpt lat="43.7533" lon="5.88957">
        <ele>308</ele>
        <time>2019-05-06T12:03:12Z</time>
      </trkpt>
      <trkpt lat="43.75319" lon="5.88891">
        <ele>308</ele>
        <time>2019-05-06T12:03:21Z</time>
      </trkpt>
      <trkpt lat="43.75317" lon="5.88826">
        <ele>306</ele>
        <time>2019-05-06T12:03:28Z</time>
      </trkpt>
      <trkpt lat="43.75313" lon="5.88762">
        <ele>304</ele>
        <time>2019-05-06T12:03:36Z</time>
      </trkpt>
      <trkpt lat="43.75305" lon="5.88696">
        <ele>303</ele>
        <time>2019-05-06T12:03:49Z</time>
      </trkpt>
      <trkpt lat="43.75287" lon="5.88636">
        <ele>305</ele>
        <time>2019-05-06T12:04:01Z</time>
      </trkpt>
      <trkpt lat="43.75263" lon="5.8858">
        <ele>306</ele>
        <time>2019-05-06T12:04:12Z</time>
      </trkpt>
      <trkpt lat="43.75247" lon="5.88521">
        <ele>303</ele>
        <time>2019-05-06T12:04:48Z</time>
      </trkpt>
      <trkpt lat="43.75226" lon="5.8846">
        <ele>303</ele>
        <time>2019-05-06T12:05:02Z</time>
      </trkpt>
      <trkpt lat="43.75197" lon="5.88409">
        <ele>304</ele>
        <time>2019-05-06T12:05:17Z</time>
      </trkpt>
      <trkpt lat="43.75162" lon="5.8836">
        <ele>304</ele>
        <time>2019-05-06T12:05:29Z</time>
      </trkpt>
      <trkpt lat="43.75138" lon="5.88305">
        <ele>307</ele>
        <time>2019-05-06T12:05:51Z</time>
      </trkpt>
      <trkpt lat="43.75106" lon="5.88263">
        <ele>311</ele>
        <time>2019-05-06T12:06:16Z</time>
      </trkpt>
      <trkpt lat="43.75071" lon="5.88222">
        <ele>311</ele>
        <time>2019-05-06T12:06:51Z</time>
      </trkpt>
      <trkpt lat="43.75028" lon="5.88203">
        <ele>310</ele>
        <time>2019-05-06T12:07:13Z</time>
      </trkpt>
      <trkpt lat="43.74984" lon="5.88171">
        <ele>310</ele>
        <time>2019-05-06T12:07:25Z</time>
      </trkpt>
      <trkpt lat="43.74939" lon="5.88137">
        <ele>308</ele>
        <time>2019-05-06T12:07:32Z</time>
      </trkpt>
      <trkpt lat="43.74897" lon="5.88094">
        <ele>306</ele>
        <time>2019-05-06T12:07:39Z</time>
      </trkpt>
      <trkpt lat="43.74856" lon="5.88058">
        <ele>306</ele>
        <time>2019-05-06T12:07:47Z</time>
      </trkpt>
      <trkpt lat="43.74822" lon="5.88017">
        <ele>305</ele>
        <time>2019-05-06T12:07:58Z</time>
      </trkpt>
      <trkpt lat="43.74789" lon="5.87968">
        <ele>305</ele>
        <time>2019-05-06T12:08:10Z</time>
      </trkpt>
      <trkpt lat="43.74756" lon="5.87916">
        <ele>305</ele>
        <time>2019-05-06T12:08:20Z</time>
      </trkpt>
      <trkpt lat="43.74724" lon="5.87868">
        <ele>304</ele>
        <time>2019-05-06T12:08:31Z</time>
      </trkpt>
      <trkpt lat="43.74703" lon="5.87813">
        <ele>304</ele>
        <time>2019-05-06T12:08:42Z</time>
      </trkpt>
      <trkpt lat="43.74688" lon="5.87747">
        <ele>304</ele>
        <time>2019-05-06T12:08:53Z</time>
      </trkpt>
      <trkpt lat="43.74673" lon="5.87688">
        <ele>305</ele>
        <time>2019-05-06T12:09:05Z</time>
      </trkpt>
      <trkpt lat="43.74659" lon="5.87625">
        <ele>304</ele>
        <time>2019-05-06T12:09:16Z</time>
      </trkpt>
      <trkpt lat="43.74646" lon="5.87558">
        <ele>302</ele>
        <time>2019-05-06T12:09:27Z</time>
      </trkpt>
      <trkpt lat="43.74625" lon="5.87502">
        <ele>303</ele>
        <time>2019-05-06T12:09:36Z</time>
      </trkpt>
      <trkpt lat="43.74586" lon="5.87455">
        <ele>305</ele>
        <time>2019-05-06T12:09:45Z</time>
      </trkpt>
      <trkpt lat="43.74552" lon="5.87413">
        <ele>305</ele>
        <time>2019-05-06T12:09:53Z</time>
      </trkpt>
      <trkpt lat="43.74517" lon="5.87367">
        <ele>304</ele>
        <time>2019-05-06T12:10:02Z</time>
      </trkpt>
      <trkpt lat="43.74487" lon="5.87312">
        <ele>302</ele>
        <time>2019-05-06T12:10:12Z</time>
      </trkpt>
      <trkpt lat="43.7445" lon="5.87266">
        <ele>299</ele>
        <time>2019-05-06T12:10:20Z</time>
      </trkpt>
      <trkpt lat="43.74415" lon="5.8722">
        <ele>297</ele>
        <time>2019-05-06T12:10:29Z</time>
      </trkpt>
      <trkpt lat="43.74383" lon="5.87172">
        <ele>296</ele>
        <time>2019-05-06T12:10:39Z</time>
      </trkpt>
      <trkpt lat="43.74353" lon="5.87125">
        <ele>295</ele>
        <time>2019-05-06T12:10:48Z</time>
      </trkpt>
      <trkpt lat="43.74321" lon="5.87076">
        <ele>295</ele>
        <time>2019-05-06T12:10:58Z</time>
      </trkpt>
      <trkpt lat="43.74289" lon="5.87026">
        <ele>295</ele>
        <time>2019-05-06T12:11:09Z</time>
      </trkpt>
      <trkpt lat="43.74259" lon="5.86979">
        <ele>295</ele>
        <time>2019-05-06T12:11:19Z</time>
      </trkpt>
      <trkpt lat="43.74227" lon="5.86929">
        <ele>295</ele>
        <time>2019-05-06T12:11:29Z</time>
      </trkpt>
      <trkpt lat="43.74196" lon="5.86881">
        <ele>295</ele>
        <time>2019-05-06T12:11:39Z</time>
      </trkpt>
      <trkpt lat="43.74166" lon="5.86832">
        <ele>294</ele>
        <time>2019-05-06T12:11:50Z</time>
      </trkpt>
      <trkpt lat="43.74135" lon="5.86786">
        <ele>295</ele>
        <time>2019-05-06T12:12:00Z</time>
      </trkpt>
      <trkpt lat="43.74104" lon="5.86733">
        <ele>295</ele>
        <time>2019-05-06T12:12:10Z</time>
      </trkpt>
      <trkpt lat="43.74071" lon="5.86685">
        <ele>295</ele>
        <time>2019-05-06T12:12:20Z</time>
      </trkpt>
      <trkpt lat="43.74039" lon="5.86636">
        <ele>294</ele>
        <time>2019-05-06T12:12:31Z</time>
      </trkpt>
      <trkpt lat="43.74008" lon="5.86586">
        <ele>294</ele>
        <time>2019-05-06T12:12:44Z</time>
      </trkpt>
      <trkpt lat="43.73978" lon="5.86536">
        <ele>294</ele>
        <time>2019-05-06T12:12:55Z</time>
      </trkpt>
      <trkpt lat="43.73947" lon="5.86488">
        <ele>294</ele>
        <time>2019-05-06T12:13:09Z</time>
      </trkpt>
      <trkpt lat="43.73914" lon="5.86437">
        <ele>294</ele>
        <time>2019-05-06T12:13:21Z</time>
      </trkpt>
      <trkpt lat="43.73881" lon="5.86387">
        <ele>294</ele>
        <time>2019-05-06T12:13:32Z</time>
      </trkpt>
      <trkpt lat="43.7385" lon="5.86335">
        <ele>293</ele>
        <time>2019-05-06T12:13:44Z</time>
      </trkpt>
      <trkpt lat="43.73817" lon="5.86286">
        <ele>293</ele>
        <time>2019-05-06T12:13:55Z</time>
      </trkpt>
      <trkpt lat="43.73785" lon="5.86236">
        <ele>293</ele>
        <time>2019-05-06T12:14:06Z</time>
      </trkpt>
      <trkpt lat="43.73754" lon="5.86189">
        <ele>292</ele>
        <time>2019-05-06T12:14:16Z</time>
      </trkpt>
      <trkpt lat="43.73724" lon="5.86142">
        <ele>292</ele>
        <time>2019-05-06T12:14:25Z</time>
      </trkpt>
      <trkpt lat="43.73692" lon="5.86093">
        <ele>292</ele>
        <time>2019-05-06T12:14:34Z</time>
      </trkpt>
      <trkpt lat="43.73661" lon="5.86043">
        <ele>291</ele>
        <time>2019-05-06T12:14:43Z</time>
      </trkpt>
      <trkpt lat="43.7363" lon="5.85994">
        <ele>290</ele>
        <time>2019-05-06T12:14:52Z</time>
      </trkpt>
      <trkpt lat="43.73599" lon="5.85945">
        <ele>289</ele>
        <time>2019-05-06T12:15:01Z</time>
      </trkpt>
      <trkpt lat="43.73567" lon="5.85895">
        <ele>289</ele>
        <time>2019-05-06T12:15:10Z</time>
      </trkpt>
      <trkpt lat="43.73533" lon="5.85842">
        <ele>289</ele>
        <time>2019-05-06T12:15:19Z</time>
      </trkpt>
      <trkpt lat="43.73502" lon="5.85794">
        <ele>289</ele>
        <time>2019-05-06T12:15:27Z</time>
      </trkpt>
      <trkpt lat="43.73471" lon="5.85747">
        <ele>289</ele>
        <time>2019-05-06T12:15:35Z</time>
      </trkpt>
      <trkpt lat="43.73441" lon="5.857">
        <ele>289</ele>
        <time>2019-05-06T12:15:45Z</time>
      </trkpt>
      <trkpt lat="43.73412" lon="5.85653">
        <ele>289</ele>
        <time>2019-05-06T12:15:56Z</time>
      </trkpt>
      <trkpt lat="43.7338" lon="5.85603">
        <ele>289</ele>
        <time>2019-05-06T12:16:06Z</time>
      </trkpt>
      <trkpt lat="43.7335" lon="5.85555">
        <ele>289</ele>
        <time>2019-05-06T12:16:16Z</time>
      </trkpt>
      <trkpt lat="43.73317" lon="5.85505">
        <ele>288</ele>
        <time>2019-05-06T12:16:26Z</time>
      </trkpt>
      <trkpt lat="43.73285" lon="5.85454">
        <ele>288</ele>
        <time>2019-05-06T12:16:36Z</time>
      </trkpt>
      <trkpt lat="43.73254" lon="5.85406">
        <ele>289</ele>
        <time>2019-05-06T12:16:46Z</time>
      </trkpt>
      <trkpt lat="43.73222" lon="5.85357">
        <ele>289</ele>
        <time>2019-05-06T12:16:57Z</time>
      </trkpt>
      <trkpt lat="43.73192" lon="5.85308">
        <ele>289</ele>
        <time>2019-05-06T12:17:08Z</time>
      </trkpt>
      <trkpt lat="43.73161" lon="5.85258">
        <ele>288</ele>
        <time>2019-05-06T12:17:18Z</time>
      </trkpt>
      <trkpt lat="43.73127" lon="5.85206">
        <ele>288</ele>
        <time>2019-05-06T12:17:28Z</time>
      </trkpt>
      <trkpt lat="43.73096" lon="5.85158">
        <ele>288</ele>
        <time>2019-05-06T12:17:37Z</time>
      </trkpt>
      <trkpt lat="43.73067" lon="5.85111">
        <ele>288</ele>
        <time>2019-05-06T12:17:47Z</time>
      </trkpt>
      <trkpt lat="43.73034" lon="5.8506">
        <ele>288</ele>
        <time>2019-05-06T12:17:58Z</time>
      </trkpt>
      <trkpt lat="43.73003" lon="5.85012">
        <ele>288</ele>
        <time>2019-05-06T12:18:08Z</time>
      </trkpt>
      <trkpt lat="43.72972" lon="5.84962">
        <ele>287</ele>
        <time>2019-05-06T12:18:18Z</time>
      </trkpt>
      <trkpt lat="43.72941" lon="5.84913">
        <ele>286</ele>
        <time>2019-05-06T12:18:28Z</time>
      </trkpt>
      <trkpt lat="43.7291" lon="5.84863">
        <ele>285</ele>
        <time>2019-05-06T12:18:38Z</time>
      </trkpt>
      <trkpt lat="43.72879" lon="5.84815">
        <ele>285</ele>
        <time>2019-05-06T12:18:48Z</time>
      </trkpt>
      <trkpt lat="43.72846" lon="5.84764">
        <ele>286</ele>
        <time>2019-05-06T12:18:58Z</time>
      </trkpt>
      <trkpt lat="43.72815" lon="5.84714">
        <ele>288</ele>
        <time>2019-05-06T12:19:07Z</time>
      </trkpt>
      <trkpt lat="43.72784" lon="5.8467">
        <ele>291</ele>
        <time>2019-05-06T12:19:21Z</time>
      </trkpt>
      <trkpt lat="43.72763" lon="5.84622">
        <ele>291</ele>
        <time>2019-05-06T12:19:39Z</time>
      </trkpt>
      <trkpt lat="43.7275" lon="5.84615">
        <ele>290</ele>
        <time>2019-05-06T12:20:02Z</time>
      </trkpt>
      <trkpt lat="43.72722" lon="5.8457">
        <ele>289</ele>
        <time>2019-05-06T12:20:18Z</time>
      </trkpt>
      <trkpt lat="43.72707" lon="5.845">
        <ele>290</ele>
        <time>2019-05-06T12:20:46Z</time>
      </trkpt>
      <trkpt lat="43.72684" lon="5.84443">
        <ele>291</ele>
        <time>2019-05-06T12:21:06Z</time>
      </trkpt>
      <trkpt lat="43.72659" lon="5.84384">
        <ele>291</ele>
        <time>2019-05-06T12:21:19Z</time>
      </trkpt>
      <trkpt lat="43.72632" lon="5.84331">
        <ele>291</ele>
        <time>2019-05-06T12:21:27Z</time>
      </trkpt>
      <trkpt lat="43.72605" lon="5.84278">
        <ele>291</ele>
        <time>2019-05-06T12:21:36Z</time>
      </trkpt>
      <trkpt lat="43.72578" lon="5.84224">
        <ele>290</ele>
        <time>2019-05-06T12:21:46Z</time>
      </trkpt>
      <trkpt lat="43.72549" lon="5.84175">
        <ele>290</ele>
        <time>2019-05-06T12:21:55Z</time>
      </trkpt>
      <trkpt lat="43.72513" lon="5.84132">
        <ele>290</ele>
        <time>2019-05-06T12:22:04Z</time>
      </trkpt>
      <trkpt lat="43.72477" lon="5.84088">
        <ele>291</ele>
        <time>2019-05-06T12:22:14Z</time>
      </trkpt>
      <trkpt lat="43.7247" lon="5.84027">
        <ele>287</ele>
        <time>2019-05-06T12:22:22Z</time>
      </trkpt>
      <trkpt lat="43.72446" lon="5.83972">
        <ele>287</ele>
        <time>2019-05-06T12:22:31Z</time>
      </trkpt>
      <trkpt lat="43.72418" lon="5.83922">
        <ele>287</ele>
        <time>2019-05-06T12:22:39Z</time>
      </trkpt>
      <trkpt lat="43.72402" lon="5.83863">
        <ele>287</ele>
        <time>2019-05-06T12:22:50Z</time>
      </trkpt>
      <trkpt lat="43.724" lon="5.83796">
        <ele>285</ele>
        <time>2019-05-06T12:23:03Z</time>
      </trkpt>
      <trkpt lat="43.72416" lon="5.83732">
        <ele>285</ele>
        <time>2019-05-06T12:23:12Z</time>
      </trkpt>
      <trkpt lat="43.72411" lon="5.83662">
        <ele>285</ele>
        <time>2019-05-06T12:23:24Z</time>
      </trkpt>
      <trkpt lat="43.72418" lon="5.83597">
        <ele>285</ele>
        <time>2019-05-06T12:23:38Z</time>
      </trkpt>
      <trkpt lat="43.72415" lon="5.83529">
        <ele>288</ele>
        <time>2019-05-06T12:23:56Z</time>
      </trkpt>
      <trkpt lat="43.72419" lon="5.8346">
        <ele>290</ele>
        <time>2019-05-06T12:24:14Z</time>
      </trkpt>
      <trkpt lat="43.72424" lon="5.83393">
        <ele>291</ele>
        <time>2019-05-06T12:24:27Z</time>
      </trkpt>
      <trkpt lat="43.7245" lon="5.83331">
        <ele>286</ele>
        <time>2019-05-06T12:24:37Z</time>
      </trkpt>
      <trkpt lat="43.72467" lon="5.83272">
        <ele>287</ele>
        <time>2019-05-06T12:24:48Z</time>
      </trkpt>
      <trkpt lat="43.72492" lon="5.83214">
        <ele>287</ele>
        <time>2019-05-06T12:24:58Z</time>
      </trkpt>
      <trkpt lat="43.72499" lon="5.83153">
        <ele>287</ele>
        <time>2019-05-06T12:25:08Z</time>
      </trkpt>
      <trkpt lat="43.72487" lon="5.83091">
        <ele>290</ele>
        <time>2019-05-06T12:25:22Z</time>
      </trkpt>
      <trkpt lat="43.72492" lon="5.83025">
        <ele>290</ele>
        <time>2019-05-06T12:25:33Z</time>
      </trkpt>
      <trkpt lat="43.72508" lon="5.82962">
        <ele>289</ele>
        <time>2019-05-06T12:25:46Z</time>
      </trkpt>
      <trkpt lat="43.7252" lon="5.82897">
        <ele>288</ele>
        <time>2019-05-06T12:25:57Z</time>
      </trkpt>
      <trkpt lat="43.72525" lon="5.82835">
        <ele>286</ele>
        <time>2019-05-06T12:26:09Z</time>
      </trkpt>
      <trkpt lat="43.72566" lon="5.82825">
        <ele>277</ele>
        <time>2019-05-06T12:26:27Z</time>
      </trkpt>
      <trkpt lat="43.72613" lon="5.82837">
        <ele>275</ele>
        <time>2019-05-06T12:26:38Z</time>
      </trkpt>
      <trkpt lat="43.7266" lon="5.82836">
        <ele>275</ele>
        <time>2019-05-06T12:26:50Z</time>
      </trkpt>
      <trkpt lat="43.72706" lon="5.82832">
        <ele>276</ele>
        <time>2019-05-06T12:27:00Z</time>
      </trkpt>
      <trkpt lat="43.72746" lon="5.82805">
        <ele>277</ele>
        <time>2019-05-06T12:27:12Z</time>
      </trkpt>
      <trkpt lat="43.72791" lon="5.82792">
        <ele>278</ele>
        <time>2019-05-06T12:27:24Z</time>
      </trkpt>
      <trkpt lat="43.72747" lon="5.82806">
        <ele>277</ele>
        <time>2019-05-06T12:28:32Z</time>
      </trkpt>
      <trkpt lat="43.72702" lon="5.82827">
        <ele>276</ele>
        <time>2019-05-06T12:28:43Z</time>
      </trkpt>
      <trkpt lat="43.72658" lon="5.82834">
        <ele>275</ele>
        <time>2019-05-06T12:28:55Z</time>
      </trkpt>
      <trkpt lat="43.7261" lon="5.82834">
        <ele>275</ele>
        <time>2019-05-06T12:29:04Z</time>
      </trkpt>
      <trkpt lat="43.72564" lon="5.82827">
        <ele>277</ele>
        <time>2019-05-06T12:29:15Z</time>
      </trkpt>
      <trkpt lat="43.72527" lon="5.82795">
        <ele>283</ele>
        <time>2019-05-06T12:29:59Z</time>
      </trkpt>
      <trkpt lat="43.72504" lon="5.82732">
        <ele>282</ele>
        <time>2019-05-06T12:30:11Z</time>
      </trkpt>
      <trkpt lat="43.72497" lon="5.82671">
        <ele>284</ele>
        <time>2019-05-06T12:30:20Z</time>
      </trkpt>
      <trkpt lat="43.72507" lon="5.82606">
        <ele>285</ele>
        <time>2019-05-06T12:30:31Z</time>
      </trkpt>
      <trkpt lat="43.7251" lon="5.82542">
        <ele>288</ele>
        <time>2019-05-06T12:30:49Z</time>
      </trkpt>
      <trkpt lat="43.72512" lon="5.8248">
        <ele>291</ele>
        <time>2019-05-06T12:31:07Z</time>
      </trkpt>
      <trkpt lat="43.72515" lon="5.82415">
        <ele>297</ele>
        <time>2019-05-06T12:31:27Z</time>
      </trkpt>
      <trkpt lat="43.72515" lon="5.82352">
        <ele>301</ele>
        <time>2019-05-06T12:31:47Z</time>
      </trkpt>
      <trkpt lat="43.7251" lon="5.82289">
        <ele>306</ele>
        <time>2019-05-06T12:32:08Z</time>
      </trkpt>
      <trkpt lat="43.72504" lon="5.82224">
        <ele>311</ele>
        <time>2019-05-06T12:32:30Z</time>
      </trkpt>
      <trkpt lat="43.72511" lon="5.8216">
        <ele>312</ele>
        <time>2019-05-06T12:32:50Z</time>
      </trkpt>
      <trkpt lat="43.72508" lon="5.82098">
        <ele>316</ele>
        <time>2019-05-06T12:33:11Z</time>
      </trkpt>
      <trkpt lat="43.72508" lon="5.82036">
        <ele>316</ele>
        <time>2019-05-06T12:33:28Z</time>
      </trkpt>
      <trkpt lat="43.72481" lon="5.81988">
        <ele>321</ele>
        <time>2019-05-06T12:33:44Z</time>
      </trkpt>
      <trkpt lat="43.72435" lon="5.81977">
        <ele>324</ele>
        <time>2019-05-06T12:33:58Z</time>
      </trkpt>
      <trkpt lat="43.72389" lon="5.81969">
        <ele>324</ele>
        <time>2019-05-06T12:34:10Z</time>
      </trkpt>
      <trkpt lat="43.72343" lon="5.81969">
        <ele>327</ele>
        <time>2019-05-06T12:34:22Z</time>
      </trkpt>
      <trkpt lat="43.72301" lon="5.8196">
        <ele>329</ele>
        <time>2019-05-06T12:34:36Z</time>
      </trkpt>
      <trkpt lat="43.72333" lon="5.81914">
        <ele>327</ele>
        <time>2019-05-06T12:34:46Z</time>
      </trkpt>
      <trkpt lat="43.7231" lon="5.81868">
        <ele>326</ele>
        <time>2019-05-06T12:35:07Z</time>
      </trkpt>
      <trkpt lat="43.72328" lon="5.81806">
        <ele>324</ele>
        <time>2019-05-06T12:35:32Z</time>
      </trkpt>
      <trkpt lat="43.72301" lon="5.81758">
        <ele>316</ele>
        <time>2019-05-06T12:35:45Z</time>
      </trkpt>
      <trkpt lat="43.7226" lon="5.81726">
        <ele>313</ele>
        <time>2019-05-06T12:35:53Z</time>
      </trkpt>
      <trkpt lat="43.72271" lon="5.81677">
        <ele>311</ele>
        <time>2019-05-06T12:36:05Z</time>
      </trkpt>
      <trkpt lat="43.72303" lon="5.81629">
        <ele>310</ele>
        <time>2019-05-06T12:36:13Z</time>
      </trkpt>
      <trkpt lat="43.72337" lon="5.81586">
        <ele>312</ele>
        <time>2019-05-06T12:36:23Z</time>
      </trkpt>
      <trkpt lat="43.7237" lon="5.81544">
        <ele>313</ele>
        <time>2019-05-06T12:36:36Z</time>
      </trkpt>
      <trkpt lat="43.72394" lon="5.81485">
        <ele>311</ele>
        <time>2019-05-06T12:36:45Z</time>
      </trkpt>
      <trkpt lat="43.72431" lon="5.81445">
        <ele>308</ele>
        <time>2019-05-06T12:36:57Z</time>
      </trkpt>
      <trkpt lat="43.72477" lon="5.81426">
        <ele>308</ele>
        <time>2019-05-06T12:37:12Z</time>
      </trkpt>
      <trkpt lat="43.72514" lon="5.81404">
        <ele>301</ele>
        <time>2019-05-06T12:37:25Z</time>
      </trkpt>
      <trkpt lat="43.72523" lon="5.81398">
        <ele>297</ele>
        <time>2019-05-06T12:37:44Z</time>
      </trkpt>
      <trkpt lat="43.72511" lon="5.81458">
        <ele>298</ele>
        <time>2019-05-06T12:38:05Z</time>
      </trkpt>
      <trkpt lat="43.7254" lon="5.81437">
        <ele>288</ele>
        <time>2019-05-06T12:38:36Z</time>
      </trkpt>
      <trkpt lat="43.72556" lon="5.81379">
        <ele>283</ele>
        <time>2019-05-06T12:38:47Z</time>
      </trkpt>
      <trkpt lat="43.72572" lon="5.81326">
        <ele>279</ele>
        <time>2019-05-06T12:38:59Z</time>
      </trkpt>
      <trkpt lat="43.7262" lon="5.81322">
        <ele>273</ele>
        <time>2019-05-06T12:39:14Z</time>
      </trkpt>
      <trkpt lat="43.72665" lon="5.81313">
        <ele>272</ele>
        <time>2019-05-06T12:39:26Z</time>
      </trkpt>
      <trkpt lat="43.72712" lon="5.81319">
        <ele>270</ele>
        <time>2019-05-06T12:39:39Z</time>
      </trkpt>
      <trkpt lat="43.72753" lon="5.81298">
        <ele>270</ele>
        <time>2019-05-06T12:39:50Z</time>
      </trkpt>
      <trkpt lat="43.728" lon="5.81289">
        <ele>271</ele>
        <time>2019-05-06T12:40:02Z</time>
      </trkpt>
      <trkpt lat="43.72846" lon="5.81279">
        <ele>273</ele>
        <time>2019-05-06T12:40:13Z</time>
      </trkpt>
      <trkpt lat="43.72891" lon="5.81268">
        <ele>276</ele>
        <time>2019-05-06T12:40:27Z</time>
      </trkpt>
      <trkpt lat="43.72935" lon="5.81273">
        <ele>278</ele>
        <time>2019-05-06T12:40:40Z</time>
      </trkpt>
      <trkpt lat="43.72983" lon="5.8127">
        <ele>279</ele>
        <time>2019-05-06T12:40:59Z</time>
      </trkpt>
      <trkpt lat="43.73029" lon="5.81259">
        <ele>279</ele>
        <time>2019-05-06T12:41:09Z</time>
      </trkpt>
      <trkpt lat="43.73069" lon="5.813">
        <ele>280</ele>
        <time>2019-05-06T12:41:26Z</time>
      </trkpt>
      <trkpt lat="43.7311" lon="5.81332">
        <ele>281</ele>
        <time>2019-05-06T12:41:39Z</time>
      </trkpt>
      <trkpt lat="43.73155" lon="5.81354">
        <ele>282</ele>
        <time>2019-05-06T12:41:53Z</time>
      </trkpt>
      <trkpt lat="43.73201" lon="5.81367">
        <ele>284</ele>
        <time>2019-05-06T12:42:05Z</time>
      </trkpt>
      <trkpt lat="43.73246" lon="5.81383">
        <ele>286</ele>
        <time>2019-05-06T12:42:18Z</time>
      </trkpt>
      <trkpt lat="43.73291" lon="5.81397">
        <ele>287</ele>
        <time>2019-05-06T12:42:33Z</time>
      </trkpt>
      <trkpt lat="43.73336" lon="5.8141">
        <ele>289</ele>
        <time>2019-05-06T12:42:49Z</time>
      </trkpt>
      <trkpt lat="43.73383" lon="5.81422">
        <ele>291</ele>
        <time>2019-05-06T12:43:04Z</time>
      </trkpt>
      <trkpt lat="43.7343" lon="5.81437">
        <ele>294</ele>
        <time>2019-05-06T12:43:18Z</time>
      </trkpt>
      <trkpt lat="43.73476" lon="5.8145">
        <ele>297</ele>
        <time>2019-05-06T12:43:35Z</time>
      </trkpt>
      <trkpt lat="43.73521" lon="5.81465">
        <ele>300</ele>
        <time>2019-05-06T12:43:52Z</time>
      </trkpt>
      <trkpt lat="43.73568" lon="5.8147">
        <ele>304</ele>
        <time>2019-05-06T12:44:10Z</time>
      </trkpt>
      <trkpt lat="43.73613" lon="5.81478">
        <ele>309</ele>
        <time>2019-05-06T12:44:28Z</time>
      </trkpt>
      <trkpt lat="43.73653" lon="5.81505">
        <ele>316</ele>
        <time>2019-05-06T12:44:48Z</time>
      </trkpt>
      <trkpt lat="43.73687" lon="5.81553">
        <ele>321</ele>
        <time>2019-05-06T12:45:09Z</time>
      </trkpt>
      <trkpt lat="43.73728" lon="5.8159">
        <ele>328</ele>
        <time>2019-05-06T12:45:32Z</time>
      </trkpt>
      <trkpt lat="43.73775" lon="5.81586">
        <ele>334</ele>
        <time>2019-05-06T12:47:00Z</time>
      </trkpt>
      <trkpt lat="43.73822" lon="5.81596">
        <ele>342</ele>
        <time>2019-05-06T12:47:48Z</time>
      </trkpt>
      <trkpt lat="43.73867" lon="5.81627">
        <ele>351</ele>
        <time>2019-05-06T12:50:29Z</time>
      </trkpt>
      <trkpt lat="43.73902" lon="5.81666">
        <ele>356</ele>
        <time>2019-05-06T12:50:57Z</time>
      </trkpt>
      <trkpt lat="43.7394" lon="5.8169">
        <ele>363</ele>
        <time>2019-05-06T12:52:23Z</time>
      </trkpt>
      <trkpt lat="43.73978" lon="5.81729">
        <ele>377</ele>
        <time>2019-05-06T12:53:40Z</time>
      </trkpt>
      <trkpt lat="43.73996" lon="5.81791">
        <ele>380</ele>
        <time>2019-05-06T12:54:12Z</time>
      </trkpt>
      <trkpt lat="43.74038" lon="5.81825">
        <ele>387</ele>
        <time>2019-05-06T12:54:36Z</time>
      </trkpt>
      <trkpt lat="43.74056" lon="5.81887">
        <ele>388</ele>
        <time>2019-05-06T12:55:02Z</time>
      </trkpt>
      <trkpt lat="43.74086" lon="5.81938">
        <ele>391</ele>
        <time>2019-05-06T12:55:31Z</time>
      </trkpt>
      <trkpt lat="43.741" lon="5.81987">
        <ele>395</ele>
        <time>2019-05-06T12:59:38Z</time>
      </trkpt>
      <trkpt lat="43.74126" lon="5.82039">
        <ele>400</ele>
        <time>2019-05-06T13:00:04Z</time>
      </trkpt>
      <trkpt lat="43.74168" lon="5.82064">
        <ele>401</ele>
        <time>2019-05-06T13:00:31Z</time>
      </trkpt>
      <trkpt lat="43.74203" lon="5.8211">
        <ele>401</ele>
        <time>2019-05-06T13:00:53Z</time>
      </trkpt>
      <trkpt lat="43.74229" lon="5.82166">
        <ele>402</ele>
        <time>2019-05-06T13:01:05Z</time>
      </trkpt>
      <trkpt lat="43.74246" lon="5.82226">
        <ele>401</ele>
        <time>2019-05-06T13:01:17Z</time>
      </trkpt>
      <trkpt lat="43.74246" lon="5.8229">
        <ele>400</ele>
        <time>2019-05-06T13:01:29Z</time>
      </trkpt>
      <trkpt lat="43.74247" lon="5.82352">
        <ele>400</ele>
        <time>2019-05-06T13:01:42Z</time>
      </trkpt>
      <trkpt lat="43.74272" lon="5.82402">
        <ele>402</ele>
        <time>2019-05-06T13:02:01Z</time>
      </trkpt>
      <trkpt lat="43.74305" lon="5.82445">
        <ele>407</ele>
        <time>2019-05-06T13:02:24Z</time>
      </trkpt>
      <trkpt lat="43.74316" lon="5.82511">
        <ele>411</ele>
        <time>2019-05-06T13:02:44Z</time>
      </trkpt>
      <trkpt lat="43.74326" lon="5.82575">
        <ele>409</ele>
        <time>2019-05-06T13:02:57Z</time>
      </trkpt>
      <trkpt lat="43.74324" lon="5.82637">
        <ele>410</ele>
        <time>2019-05-06T13:03:14Z</time>
      </trkpt>
      <trkpt lat="43.74311" lon="5.82696">
        <ele>411</ele>
        <time>2019-05-06T13:03:34Z</time>
      </trkpt>
      <trkpt lat="43.74346" lon="5.82742">
        <ele>412</ele>
        <time>2019-05-06T13:03:47Z</time>
      </trkpt>
      <trkpt lat="43.74371" lon="5.82799">
        <ele>410</ele>
        <time>2019-05-06T13:03:56Z</time>
      </trkpt>
      <trkpt lat="43.74399" lon="5.8285">
        <ele>413</ele>
        <time>2019-05-06T13:04:06Z</time>
      </trkpt>
      <trkpt lat="43.74436" lon="5.82882">
        <ele>419</ele>
        <time>2019-05-06T13:04:29Z</time>
      </trkpt>
      <trkpt lat="43.74455" lon="5.82938">
        <ele>421</ele>
        <time>2019-05-06T13:04:50Z</time>
      </trkpt>
      <trkpt lat="43.74448" lon="5.83005">
        <ele>417</ele>
        <time>2019-05-06T13:05:01Z</time>
      </trkpt>
      <trkpt lat="43.74448" lon="5.8307">
        <ele>414</ele>
        <time>2019-05-06T13:05:12Z</time>
      </trkpt>
      <trkpt lat="43.74451" lon="5.83135">
        <ele>413</ele>
        <time>2019-05-06T13:05:33Z</time>
      </trkpt>
      <trkpt lat="43.74452" lon="5.83198">
        <ele>414</ele>
        <time>2019-05-06T13:05:53Z</time>
      </trkpt>
      <trkpt lat="43.74476" lon="5.83251">
        <ele>415</ele>
        <time>2019-05-06T13:06:08Z</time>
      </trkpt>
      <trkpt lat="43.74482" lon="5.83317">
        <ele>419</ele>
        <time>2019-05-06T13:06:19Z</time>
      </trkpt>
      <trkpt lat="43.74502" lon="5.83372">
        <ele>422</ele>
        <time>2019-05-06T13:06:37Z</time>
      </trkpt>
      <trkpt lat="43.74514" lon="5.83425">
        <ele>423</ele>
        <time>2019-05-06T13:06:55Z</time>
      </trkpt>
      <trkpt lat="43.74512" lon="5.83489">
        <ele>425</ele>
        <time>2019-05-06T13:07:05Z</time>
      </trkpt>
      <trkpt lat="43.74553" lon="5.83513">
        <ele>428</ele>
        <time>2019-05-06T13:07:25Z</time>
      </trkpt>
      <trkpt lat="43.74598" lon="5.83529">
        <ele>429</ele>
        <time>2019-05-06T13:07:49Z</time>
      </trkpt>
      <trkpt lat="43.74634" lon="5.83573">
        <ele>429</ele>
        <time>2019-05-06T13:08:09Z</time>
      </trkpt>
      <trkpt lat="43.74662" lon="5.83628">
        <ele>430</ele>
        <time>2019-05-06T13:08:21Z</time>
      </trkpt>
      <trkpt lat="43.74695" lon="5.83668">
        <ele>430</ele>
        <time>2019-05-06T13:11:42Z</time>
      </trkpt>
      <trkpt lat="43.74716" lon="5.83733">
        <ele>432</ele>
        <time>2019-05-06T13:12:33Z</time>
      </trkpt>
      <trkpt lat="43.74717" lon="5.83797">
        <ele>437</ele>
        <time>2019-05-06T13:12:52Z</time>
      </trkpt>
      <trkpt lat="43.74711" lon="5.83859">
        <ele>439</ele>
        <time>2019-05-06T13:13:14Z</time>
      </trkpt>
      <trkpt lat="43.74724" lon="5.83918">
        <ele>439</ele>
        <time>2019-05-06T13:13:30Z</time>
      </trkpt>
      <trkpt lat="43.7476" lon="5.83947">
        <ele>440</ele>
        <time>2019-05-06T13:13:46Z</time>
      </trkpt>
      <trkpt lat="43.74802" lon="5.83967">
        <ele>444</ele>
        <time>2019-05-06T13:14:11Z</time>
      </trkpt>
      <trkpt lat="43.74837" lon="5.84008">
        <ele>445</ele>
        <time>2019-05-06T13:14:26Z</time>
      </trkpt>
      <trkpt lat="43.7488" lon="5.84038">
        <ele>441</ele>
        <time>2019-05-06T13:14:35Z</time>
      </trkpt>
      <trkpt lat="43.74917" lon="5.84075">
        <ele>439</ele>
        <time>2019-05-06T13:14:52Z</time>
      </trkpt>
      <trkpt lat="43.74947" lon="5.84121">
        <ele>437</ele>
        <time>2019-05-06T13:15:03Z</time>
      </trkpt>
      <trkpt lat="43.74987" lon="5.84153">
        <ele>437</ele>
        <time>2019-05-06T13:15:14Z</time>
      </trkpt>
      <trkpt lat="43.75026" lon="5.84186">
        <ele>438</ele>
        <time>2019-05-06T13:15:30Z</time>
      </trkpt>
      <trkpt lat="43.75071" lon="5.84196">
        <ele>440</ele>
        <time>2019-05-06T13:15:48Z</time>
      </trkpt>
      <trkpt lat="43.75116" lon="5.84202">
        <ele>441</ele>
        <time>2019-05-06T13:16:26Z</time>
      </trkpt>
      <trkpt lat="43.75162" lon="5.84218">
        <ele>442</ele>
        <time>2019-05-06T13:16:43Z</time>
      </trkpt>
      <trkpt lat="43.75206" lon="5.84202">
        <ele>444</ele>
        <time>2019-05-06T13:17:02Z</time>
      </trkpt>
      <trkpt lat="43.75251" lon="5.84186">
        <ele>447</ele>
        <time>2019-05-06T13:17:25Z</time>
      </trkpt>
      <trkpt lat="43.75296" lon="5.84183">
        <ele>450</ele>
        <time>2019-05-06T13:17:50Z</time>
      </trkpt>
      <trkpt lat="43.75342" lon="5.84174">
        <ele>456</ele>
        <time>2019-05-06T13:18:15Z</time>
      </trkpt>
      <trkpt lat="43.75383" lon="5.8416">
        <ele>461</ele>
        <time>2019-05-06T13:18:40Z</time>
      </trkpt>
      <trkpt lat="43.75422" lon="5.8413">
        <ele>463</ele>
        <time>2019-05-06T13:19:05Z</time>
      </trkpt>
      <trkpt lat="43.75468" lon="5.84119">
        <ele>466</ele>
        <time>2019-05-06T13:19:28Z</time>
      </trkpt>
      <trkpt lat="43.75514" lon="5.8412">
        <ele>467</ele>
        <time>2019-05-06T13:19:45Z</time>
      </trkpt>
      <trkpt lat="43.75561" lon="5.84124">
        <ele>467</ele>
        <time>2019-05-06T13:20:01Z</time>
      </trkpt>
      <trkpt lat="43.75608" lon="5.84118">
        <ele>469</ele>
        <time>2019-05-06T13:20:17Z</time>
      </trkpt>
      <trkpt lat="43.75647" lon="5.84145">
        <ele>470</ele>
        <time>2019-05-06T13:20:35Z</time>
      </trkpt>
      <trkpt lat="43.75692" lon="5.84169">
        <ele>471</ele>
        <time>2019-05-06T13:20:50Z</time>
      </trkpt>
      <trkpt lat="43.75729" lon="5.84207">
        <ele>469</ele>
        <time>2019-05-06T13:21:05Z</time>
      </trkpt>
      <trkpt lat="43.75764" lon="5.84253">
        <ele>466</ele>
        <time>2019-05-06T13:21:18Z</time>
      </trkpt>
      <trkpt lat="43.75804" lon="5.84287">
        <ele>466</ele>
        <time>2019-05-06T13:21:29Z</time>
      </trkpt>
      <trkpt lat="43.75849" lon="5.84307">
        <ele>468</ele>
        <time>2019-05-06T13:21:44Z</time>
      </trkpt>
      <trkpt lat="43.75892" lon="5.84326">
        <ele>468</ele>
        <time>2019-05-06T13:21:55Z</time>
      </trkpt>
      <trkpt lat="43.75918" lon="5.84378">
        <ele>469</ele>
        <time>2019-05-06T13:22:09Z</time>
      </trkpt>
      <trkpt lat="43.75929" lon="5.84441">
        <ele>469</ele>
        <time>2019-05-06T13:22:21Z</time>
      </trkpt>
      <trkpt lat="43.75942" lon="5.84505">
        <ele>469</ele>
        <time>2019-05-06T13:22:33Z</time>
      </trkpt>
      <trkpt lat="43.75961" lon="5.84559">
        <ele>470</ele>
        <time>2019-05-06T13:22:53Z</time>
      </trkpt>
      <trkpt lat="43.75982" lon="5.84615">
        <ele>471</ele>
        <time>2019-05-06T13:23:08Z</time>
      </trkpt>
      <trkpt lat="43.75985" lon="5.84678">
        <ele>472</ele>
        <time>2019-05-06T13:23:26Z</time>
      </trkpt>
      <trkpt lat="43.75993" lon="5.8474">
        <ele>472</ele>
        <time>2019-05-06T13:23:40Z</time>
      </trkpt>
      <trkpt lat="43.76014" lon="5.84795">
        <ele>467</ele>
        <time>2019-05-06T13:23:50Z</time>
      </trkpt>
      <trkpt lat="43.76054" lon="5.84819">
        <ele>463</ele>
        <time>2019-05-06T13:24:04Z</time>
      </trkpt>
      <trkpt lat="43.76101" lon="5.84825">
        <ele>462</ele>
        <time>2019-05-06T13:24:15Z</time>
      </trkpt>
      <trkpt lat="43.76146" lon="5.84841">
        <ele>461</ele>
        <time>2019-05-06T13:24:35Z</time>
      </trkpt>
      <trkpt lat="43.76183" lon="5.84876">
        <ele>465</ele>
        <time>2019-05-06T13:24:55Z</time>
      </trkpt>
      <trkpt lat="43.7622" lon="5.84915">
        <ele>471</ele>
        <time>2019-05-06T13:25:16Z</time>
      </trkpt>
      <trkpt lat="43.76247" lon="5.8497">
        <ele>468</ele>
        <time>2019-05-06T13:25:34Z</time>
      </trkpt>
      <trkpt lat="43.76275" lon="5.8502">
        <ele>470</ele>
        <time>2019-05-06T13:25:49Z</time>
      </trkpt>
      <trkpt lat="43.76305" lon="5.85068">
        <ele>470</ele>
        <time>2019-05-06T13:26:09Z</time>
      </trkpt>
      <trkpt lat="43.76321" lon="5.85128">
        <ele>470</ele>
        <time>2019-05-06T13:26:25Z</time>
      </trkpt>
      <trkpt lat="43.7633" lon="5.85191">
        <ele>472</ele>
        <time>2019-05-06T13:26:40Z</time>
      </trkpt>
      <trkpt lat="43.76325" lon="5.85256">
        <ele>472</ele>
        <time>2019-05-06T13:26:55Z</time>
      </trkpt>
      <trkpt lat="43.76319" lon="5.85318">
        <ele>472</ele>
        <time>2019-05-06T13:27:10Z</time>
      </trkpt>
      <trkpt lat="43.76316" lon="5.85328">
        <ele>473</ele>
        <time>2019-05-06T13:28:40Z</time>
      </trkpt>
      <trkpt lat="43.76281" lon="5.85357">
        <ele>470</ele>
        <time>2019-05-06T13:54:06Z</time>
      </trkpt>
      <trkpt lat="43.76235" lon="5.8537">
        <ele>467</ele>
        <time>2019-05-06T13:54:47Z</time>
      </trkpt>
      <trkpt lat="43.7619" lon="5.85389">
        <ele>464</ele>
        <time>2019-05-06T13:55:18Z</time>
      </trkpt>
      <trkpt lat="43.76149" lon="5.85416">
        <ele>456</ele>
        <time>2019-05-06T13:55:43Z</time>
      </trkpt>
      <trkpt lat="43.7611" lon="5.8545">
        <ele>450</ele>
        <time>2019-05-06T13:56:17Z</time>
      </trkpt>
      <trkpt lat="43.76072" lon="5.85488">
        <ele>442</ele>
        <time>2019-05-06T13:56:43Z</time>
      </trkpt>
      <trkpt lat="43.76036" lon="5.85537">
        <ele>431</ele>
        <time>2019-05-06T13:57:06Z</time>
      </trkpt>
      <trkpt lat="43.76006" lon="5.85587">
        <ele>421</ele>
        <time>2019-05-06T13:57:30Z</time>
      </trkpt>
      <trkpt lat="43.75973" lon="5.85641">
        <ele>412</ele>
        <time>2019-05-06T13:58:08Z</time>
      </trkpt>
      <trkpt lat="43.75945" lon="5.85692">
        <ele>401</ele>
        <time>2019-05-06T13:58:42Z</time>
      </trkpt>
      <trkpt lat="43.75923" lon="5.85751">
        <ele>396</ele>
        <time>2019-05-06T13:59:39Z</time>
      </trkpt>
      <trkpt lat="43.75926" lon="5.85828">
        <ele>382</ele>
        <time>2019-05-06T14:01:12Z</time>
      </trkpt>
      <trkpt lat="43.75936" lon="5.85895">
        <ele>372</ele>
        <time>2019-05-06T14:01:57Z</time>
      </trkpt>
      <trkpt lat="43.75948" lon="5.8596">
        <ele>357</ele>
        <time>2019-05-06T14:02:36Z</time>
      </trkpt>
      <trkpt lat="43.75952" lon="5.86031">
        <ele>349</ele>
        <time>2019-05-06T14:03:05Z</time>
      </trkpt>
      <trkpt lat="43.75944" lon="5.86101">
        <ele>342</ele>
        <time>2019-05-06T14:03:23Z</time>
      </trkpt>
      <trkpt lat="43.75918" lon="5.86156">
        <ele>337</ele>
        <time>2019-05-06T14:03:41Z</time>
      </trkpt>
      <trkpt lat="43.75877" lon="5.8616">
        <ele>335</ele>
        <time>2019-05-06T14:03:56Z</time>
      </trkpt>
      <trkpt lat="43.75831" lon="5.86151">
        <ele>332</ele>
        <time>2019-05-06T14:04:07Z</time>
      </trkpt>
      <trkpt lat="43.75786" lon="5.86177">
        <ele>331</ele>
        <time>2019-05-06T14:04:18Z</time>
      </trkpt>
      <trkpt lat="43.75753" lon="5.86226">
        <ele>329</ele>
        <time>2019-05-06T14:04:31Z</time>
      </trkpt>
      <trkpt lat="43.75723" lon="5.86278">
        <ele>323</ele>
        <time>2019-05-06T14:04:42Z</time>
      </trkpt>
      <trkpt lat="43.75697" lon="5.8633">
        <ele>321</ele>
        <time>2019-05-06T14:04:55Z</time>
      </trkpt>
      <trkpt lat="43.75666" lon="5.86387">
        <ele>318</ele>
        <time>2019-05-06T14:05:13Z</time>
      </trkpt>
      <trkpt lat="43.75642" lon="5.86453">
        <ele>312</ele>
        <time>2019-05-06T14:05:25Z</time>
      </trkpt>
      <trkpt lat="43.75631" lon="5.86515">
        <ele>308</ele>
        <time>2019-05-06T14:05:36Z</time>
      </trkpt>
      <trkpt lat="43.75639" lon="5.86582">
        <ele>307</ele>
        <time>2019-05-06T14:05:46Z</time>
      </trkpt>
      <trkpt lat="43.75644" lon="5.86645">
        <ele>306</ele>
        <time>2019-05-06T14:05:57Z</time>
      </trkpt>
      <trkpt lat="43.75647" lon="5.8671">
        <ele>305</ele>
        <time>2019-05-06T14:06:06Z</time>
      </trkpt>
      <trkpt lat="43.75651" lon="5.86777">
        <ele>304</ele>
        <time>2019-05-06T14:06:15Z</time>
      </trkpt>
      <trkpt lat="43.75652" lon="5.86843">
        <ele>303</ele>
        <time>2019-05-06T14:06:25Z</time>
      </trkpt>
      <trkpt lat="43.75653" lon="5.86905">
        <ele>303</ele>
        <time>2019-05-06T14:06:39Z</time>
      </trkpt>
      <trkpt lat="43.75618" lon="5.86861">
        <ele>302</ele>
        <time>2019-05-06T14:07:16Z</time>
      </trkpt>
      <trkpt lat="43.75583" lon="5.86827">
        <ele>301</ele>
        <time>2019-05-06T14:07:36Z</time>
      </trkpt>
      <trkpt lat="43.75553" lon="5.86781">
        <ele>301</ele>
        <time>2019-05-06T14:07:54Z</time>
      </trkpt>
      <trkpt lat="43.75512" lon="5.86811">
        <ele>300</ele>
        <time>2019-05-06T14:08:04Z</time>
      </trkpt>
      <trkpt lat="43.75473" lon="5.86844">
        <ele>299</ele>
        <time>2019-05-06T14:08:13Z</time>
      </trkpt>
      <trkpt lat="43.75432" lon="5.86879">
        <ele>299</ele>
        <time>2019-05-06T14:08:25Z</time>
      </trkpt>
      <trkpt lat="43.75392" lon="5.86913">
        <ele>299</ele>
        <time>2019-05-06T14:08:35Z</time>
      </trkpt>
      <trkpt lat="43.75352" lon="5.86946">
        <ele>299</ele>
        <time>2019-05-06T14:08:44Z</time>
      </trkpt>
      <trkpt lat="43.75312" lon="5.86979">
        <ele>298</ele>
        <time>2019-05-06T14:08:55Z</time>
      </trkpt>
      <trkpt lat="43.7527" lon="5.87014">
        <ele>298</ele>
        <time>2019-05-06T14:09:05Z</time>
      </trkpt>
      <trkpt lat="43.75232" lon="5.87046">
        <ele>298</ele>
        <time>2019-05-06T14:09:14Z</time>
      </trkpt>
      <trkpt lat="43.75192" lon="5.8708">
        <ele>298</ele>
        <time>2019-05-06T14:09:26Z</time>
      </trkpt>
      <trkpt lat="43.75152" lon="5.87113">
        <ele>297</ele>
        <time>2019-05-06T14:09:37Z</time>
      </trkpt>
      <trkpt lat="43.75109" lon="5.87147">
        <ele>297</ele>
        <time>2019-05-06T14:09:47Z</time>
      </trkpt>
      <trkpt lat="43.75069" lon="5.87178">
        <ele>297</ele>
        <time>2019-05-06T14:09:57Z</time>
      </trkpt>
      <trkpt lat="43.75028" lon="5.8721">
        <ele>297</ele>
        <time>2019-05-06T14:10:09Z</time>
      </trkpt>
      <trkpt lat="43.7499" lon="5.87241">
        <ele>297</ele>
        <time>2019-05-06T14:10:26Z</time>
      </trkpt>
      <trkpt lat="43.74949" lon="5.87274">
        <ele>297</ele>
        <time>2019-05-06T14:10:42Z</time>
      </trkpt>
      <trkpt lat="43.74913" lon="5.87313">
        <ele>297</ele>
        <time>2019-05-06T14:10:58Z</time>
      </trkpt>
      <trkpt lat="43.74938" lon="5.87374">
        <ele>297</ele>
        <time>2019-05-06T14:11:14Z</time>
      </trkpt>
      <trkpt lat="43.74962" lon="5.87434">
        <ele>297</ele>
        <time>2019-05-06T14:11:25Z</time>
      </trkpt>
      <trkpt lat="43.74986" lon="5.87491">
        <ele>296</ele>
        <time>2019-05-06T14:11:37Z</time>
      </trkpt>
      <trkpt lat="43.75012" lon="5.87546">
        <ele>296</ele>
        <time>2019-05-06T14:11:51Z</time>
      </trkpt>
      <trkpt lat="43.75034" lon="5.87602">
        <ele>297</ele>
        <time>2019-05-06T14:12:03Z</time>
      </trkpt>
      <trkpt lat="43.75058" lon="5.87659">
        <ele>296</ele>
        <time>2019-05-06T14:12:18Z</time>
      </trkpt>
      <trkpt lat="43.75083" lon="5.87715">
        <ele>296</ele>
        <time>2019-05-06T14:12:33Z</time>
      </trkpt>
      <trkpt lat="43.75105" lon="5.87774">
        <ele>296</ele>
        <time>2019-05-06T14:12:45Z</time>
      </trkpt>
      <trkpt lat="43.75131" lon="5.87831">
        <ele>296</ele>
        <time>2019-05-06T14:12:55Z</time>
      </trkpt>
      <trkpt lat="43.75155" lon="5.87893">
        <ele>296</ele>
        <time>2019-05-06T14:13:04Z</time>
      </trkpt>
      <trkpt lat="43.75179" lon="5.87949">
        <ele>296</ele>
        <time>2019-05-06T14:13:13Z</time>
      </trkpt>
      <trkpt lat="43.75203" lon="5.88004">
        <ele>296</ele>
        <time>2019-05-06T14:13:23Z</time>
      </trkpt>
      <trkpt lat="43.75228" lon="5.88056">
        <ele>296</ele>
        <time>2019-05-06T14:13:34Z</time>
      </trkpt>
      <trkpt lat="43.75249" lon="5.88109">
        <ele>297</ele>
        <time>2019-05-06T14:13:49Z</time>
      </trkpt>
      <trkpt lat="43.75273" lon="5.88166">
        <ele>298</ele>
        <time>2019-05-06T14:14:04Z</time>
      </trkpt>
      <trkpt lat="43.75296" lon="5.88223">
        <ele>301</ele>
        <time>2019-05-06T14:14:18Z</time>
      </trkpt>
      <trkpt lat="43.75315" lon="5.88282">
        <ele>300</ele>
        <time>2019-05-06T14:14:33Z</time>
      </trkpt>
      <trkpt lat="43.75326" lon="5.88343">
        <ele>300</ele>
        <time>2019-05-06T14:14:48Z</time>
      </trkpt>
      <trkpt lat="43.75338" lon="5.88406">
        <ele>300</ele>
        <time>2019-05-06T14:14:58Z</time>
      </trkpt>
      <trkpt lat="43.75347" lon="5.88468">
        <ele>300</ele>
        <time>2019-05-06T14:15:08Z</time>
      </trkpt>
      <trkpt lat="43.75357" lon="5.88538">
        <ele>300</ele>
        <time>2019-05-06T14:15:22Z</time>
      </trkpt>
      <trkpt lat="43.75365" lon="5.88606">
        <ele>300</ele>
        <time>2019-05-06T14:15:32Z</time>
      </trkpt>
      <trkpt lat="43.75381" lon="5.8867">
        <ele>302</ele>
        <time>2019-05-06T14:15:41Z</time>
      </trkpt>
      <trkpt lat="43.75388" lon="5.88735">
        <ele>307</ele>
        <time>2019-05-06T14:15:50Z</time>
      </trkpt>
      <trkpt lat="43.75394" lon="5.88802">
        <ele>309</ele>
        <time>2019-05-06T14:16:00Z</time>
      </trkpt>
      <trkpt lat="43.754" lon="5.88864">
        <ele>309</ele>
        <time>2019-05-06T14:16:09Z</time>
      </trkpt>
      <trkpt lat="43.75402" lon="5.88928">
        <ele>308</ele>
        <time>2019-05-06T14:16:21Z</time>
      </trkpt>
      <trkpt lat="43.75409" lon="5.89">
        <ele>306</ele>
        <time>2019-05-06T14:16:56Z</time>
      </trkpt>
      <trkpt lat="43.75408" lon="5.89064">
        <ele>305</ele>
        <time>2019-05-06T14:17:21Z</time>
      </trkpt>
      <trkpt lat="43.75403" lon="5.8913">
        <ele>304</ele>
        <time>2019-05-06T14:17:37Z</time>
      </trkpt>
      <trkpt lat="43.75399" lon="5.89194">
        <ele>304</ele>
        <time>2019-05-06T14:17:53Z</time>
      </trkpt>
      <trkpt lat="43.754" lon="5.89189">
        <ele>304</ele>
        <time>2019-05-06T14:20:33Z</time>
      </trkpt>
      <trkpt lat="43.75407" lon="5.89125">
        <ele>304</ele>
        <time>2019-05-06T14:20:51Z</time>
      </trkpt>
      <trkpt lat="43.75431" lon="5.89076">
        <ele>308</ele>
        <time>2019-05-06T14:21:11Z</time>
      </trkpt>
      <trkpt lat="43.75428" lon="5.89013">
        <ele>309</ele>
        <time>2019-05-06T14:21:33Z</time>
      </trkpt>
      <trkpt lat="43.75396" lon="5.88983">
        <ele>305</ele>
        <time>2019-05-06T14:22:01Z</time>
      </trkpt>
      <trkpt lat="43.75349" lon="5.8899">
        <ele>306</ele>
        <time>2019-05-06T14:22:11Z</time>
      </trkpt>
      <trkpt lat="43.75326" lon="5.89031">
        <ele>310</ele>
        <time>2019-05-06T14:22:24Z</time>
      </trkpt>
      <trkpt lat="43.75318" lon="5.89094">
        <ele>307</ele>
        <time>2019-05-06T14:22:33Z</time>
      </trkpt>
      <trkpt lat="43.75309" lon="5.8916">
        <ele>306</ele>
        <time>2019-05-06T14:22:39Z</time>
      </trkpt>
      <trkpt lat="43.75295" lon="5.89223">
        <ele>306</ele>
        <time>2019-05-06T14:22:46Z</time>
      </trkpt>
      <trkpt lat="43.75266" lon="5.89278">
        <ele>306</ele>
        <time>2019-05-06T14:22:54Z</time>
      </trkpt>
      <trkpt lat="43.7523" lon="5.89326">
        <ele>305</ele>
        <time>2019-05-06T14:23:02Z</time>
      </trkpt>
      <trkpt lat="43.75193" lon="5.89372">
        <ele>304</ele>
        <time>2019-05-06T14:23:11Z</time>
      </trkpt>
      <trkpt lat="43.75189" lon="5.89433">
        <ele>303</ele>
        <time>2019-05-06T14:23:23Z</time>
      </trkpt>
      <trkpt lat="43.75169" lon="5.89475">
        <ele>302</ele>
        <time>2019-05-06T14:23:40Z</time>
      </trkpt>
      <trkpt lat="43.75139" lon="5.89519">
        <ele>302</ele>
        <time>2019-05-06T14:23:54Z</time>
      </trkpt>
      <trkpt lat="43.75148" lon="5.89584">
        <ele>303</ele>
        <time>2019-05-06T14:24:04Z</time>
      </trkpt>
      <trkpt lat="43.7515" lon="5.89647">
        <ele>303</ele>
        <time>2019-05-06T14:24:18Z</time>
      </trkpt>
      <trkpt lat="43.75111" lon="5.89669">
        <ele>302</ele>
        <time>2019-05-06T14:24:42Z</time>
      </trkpt>
      <trkpt lat="43.75112" lon="5.89735">
        <ele>302</ele>
        <time>2019-05-06T14:24:56Z</time>
      </trkpt>
      <trkpt lat="43.75108" lon="5.89753">
        <ele>302</ele>
        <time>2019-05-06T14:31:56Z</time>
      </trkpt>
      <trkpt lat="43.75113" lon="5.89739">
        <ele>302</ele>
        <time>2019-05-06T15:12:04Z</time>
      </trkpt>
    </trkseg>
  </trk>
</gpx>